Scottdale, Georgia
Current Conditions -  °F | °C
As of 4:53 PM on Tuesday 21 Oct 2014 (Local Time) from KPDK Reporting Station
Clear Clear  
Wind Chill: 72°   Ceiling: Unl
Heat Index: 72°   Visibility: 10mi
Dew Point: 49°   Wind: 9mph
Humidity: 44%   Direction: 300°WNW
Pressure: 29.96"   Gusts: 17mph
Location:  33.79°N, 84.26°W
Report Text: KPDK 212053Z 30008G15KT 10SM CLR 22/09 A2996 RMK AO2 SLP139 T02220094 55010
Loading
Personal Weather Stations






























Interactive Weather Map
Tropical Storm Tracking
New forecast layout! Learn more

10-Day Weather Forecast

Advertisements
Track Severe Weather on mobile